Lyman, Wyoming
Current Conditions -  °F | °C
As of 1:55 PM on Tuesday 25 Nov 2014 (Local Time) from KFBR Reporting Station
Overcast Overcast  
Wind Chill: 26°   Ceiling: 2700
Heat Index: 37°   Visibility: 10mi
Dew Point: 29°   Wind: 25mph
Humidity: 72%   Direction: 250°WSW
Pressure: 30.18"   Gusts: 36mph
Location:  41.33°N, 110.29°W
Report Text: KFBR 252055Z AUTO 25022G31KT 10SM OVC027 03/M02 A3018 RMK AO2 T00301016
Loading
Personal Weather Stations






























Interactive Weather Map New forecast layout! Learn more

10-Day Weather Forecast

Advertisements
Track Severe Weather on mobile